createdAt,value
2019-03-06T00:03:06.047Z,7.20
2019-03-06T00:05:54.228Z,7.20
2019-03-06T00:08:23.339Z,7.20
2019-03-06T00:11:11.795Z,7.20
2019-03-06T00:13:40.910Z,7.20
2019-03-06T00:16:29.126Z,7.10
2019-03-06T00:18:58.643Z,7.20
2019-03-06T00:21:47.110Z,7.30
2019-03-06T00:24:35.319Z,7.30
2019-03-06T00:27:23.787Z,7.30
2019-03-06T00:30:12.342Z,7.30
2019-03-06T00:32:42.079Z,7.30
2019-03-06T00:35:16.944Z,7.30
2019-03-06T00:38:05.239Z,7.30
2019-03-06T00:41:12.720Z,7.40
2019-03-06T00:44:01.075Z,7.40
2019-03-06T00:46:30.184Z,7.40
2019-03-06T00:48:59.277Z,7.40
2019-03-06T00:51:28.667Z,7.40
2019-03-06T00:53:57.775Z,7.40
2019-03-06T00:56:27.030Z,7.40
2019-03-06T00:58:56.136Z,7.40
2019-03-06T01:01:37.307Z,7.40
2019-03-06T01:04:06.443Z,7.40
2019-03-06T01:06:36.305Z,7.40
2019-03-06T01:09:07.335Z,7.30
2019-03-06T01:11:36.947Z,7.30
2019-03-06T01:14:06.139Z,7.30
2019-03-06T01:16:35.211Z,7.40
2019-03-06T01:19:04.769Z,7.40
2019-03-06T01:21:34.492Z,7.40
2019-03-06T01:24:03.691Z,7.40
2019-03-06T01:26:32.860Z,7.50
2019-03-06T01:29:01.956Z,7.50
2019-03-06T01:31:31.392Z,7.40
2019-03-06T01:34:38.628Z,7.40
2019-03-06T01:37:24.354Z,7.40
2019-03-06T01:40:30.702Z,7.40
2019-03-06T01:43:18.188Z,7.30
2019-03-06T01:45:59.716Z,7.40
2019-03-06T01:48:40.083Z,7.30
2019-03-06T01:51:20.899Z,7.30
2019-03-06T01:54:02.399Z,7.20
2019-03-06T01:56:42.778Z,7.10
2019-03-06T01:59:23.494Z,7.00
2019-03-06T02:02:04.909Z,7.00
2019-03-06T02:04:45.859Z,7.10
2019-03-06T02:07:26.955Z,7.20
2019-03-06T02:10:07.858Z,7.20
2019-03-06T02:12:48.901Z,7.20
2019-03-06T02:15:30.551Z,7.30
2019-03-06T02:18:11.332Z,7.30
2019-03-06T02:20:52.211Z,7.20
2019-03-06T02:23:32.891Z,7.20
2019-03-06T02:26:13.791Z,7.30
2019-03-06T02:28:54.316Z,7.30
2019-03-06T02:31:34.779Z,7.30
2019-03-06T02:34:15.743Z,7.10
2019-03-06T02:36:56.762Z,7.20
2019-03-06T02:39:37.726Z,7.10
2019-03-06T02:42:18.466Z,7.00
2019-03-06T02:44:47.792Z,7.00
2019-03-06T02:47:36.150Z,6.90
2019-03-06T02:50:24.443Z,6.80
2019-03-06T02:53:12.981Z,6.70
2019-03-06T02:56:01.536Z,6.70
2019-03-06T02:59:08.771Z,6.70
2019-03-06T03:02:01.784Z,6.60
2019-03-06T03:05:09.012Z,6.60
2019-03-06T03:07:57.546Z,6.60
2019-03-06T03:10:45.841Z,6.60
2019-03-06T03:13:34.299Z,6.60
2019-03-06T03:16:03.411Z,6.60
2019-03-06T03:18:51.690Z,6.60
2019-03-06T03:21:40.081Z,6.60
2019-03-06T03:24:28.287Z,6.60
2019-03-06T03:27:08.852Z,6.70
2019-03-06T03:29:50.501Z,6.70
2019-03-06T03:32:31.589Z,6.70
2019-03-06T03:35:12.361Z,6.50
2019-03-06T03:37:53.963Z,6.50
2019-03-06T03:40:33.515Z,6.40
2019-03-06T03:43:22.058Z,6.50
2019-03-06T03:46:12.070Z,6.50
2019-03-06T03:49:00.810Z,6.50
2019-03-06T03:51:49.115Z,6.40
2019-03-06T03:54:37.419Z,6.40
2019-03-06T03:57:25.897Z,6.40
2019-03-06T04:00:14.257Z,6.40
2019-03-06T04:03:02.561Z,6.40
2019-03-06T04:05:50.880Z,6.50
2019-03-06T04:08:39.071Z,6.50
2019-03-06T04:11:27.294Z,6.40
2019-03-06T04:14:15.496Z,6.50
2019-03-06T04:17:04.046Z,6.50
2019-03-06T04:19:52.322Z,6.50
2019-03-06T04:22:40.792Z,6.50
2019-03-06T04:25:29.004Z,6.50
2019-03-06T04:28:17.222Z,6.50
2019-03-06T04:31:05.502Z,6.60
2019-03-06T04:33:53.701Z,6.50
2019-03-06T04:36:41.913Z,6.50
2019-03-06T04:39:30.283Z,6.60
2019-03-06T04:42:18.782Z,6.60
2019-03-06T04:45:07.752Z,6.50
2019-03-06T04:47:55.984Z,6.60
2019-03-06T04:50:44.281Z,6.60
2019-03-06T04:53:32.488Z,6.60
2019-03-06T04:56:20.784Z,6.50
2019-03-06T04:59:08.990Z,6.50
2019-03-06T05:01:57.282Z,6.50
2019-03-06T05:04:45.507Z,6.50
2019-03-06T05:07:26.748Z,6.50
2019-03-06T05:10:07.576Z,6.50
2019-03-06T05:12:36.707Z,6.40
2019-03-06T05:15:25.228Z,6.40
2019-03-06T05:18:32.463Z,6.50
2019-03-06T05:21:21.019Z,6.60
2019-03-06T05:24:09.487Z,6.60
2019-03-06T05:26:59.405Z,6.60
2019-03-06T05:29:47.886Z,6.60
2019-03-06T05:32:37.947Z,6.60
2019-03-06T05:35:45.332Z,6.60
2019-03-06T05:38:35.807Z,6.50
2019-03-06T05:41:24.019Z,6.60
2019-03-06T05:44:12.236Z,6.60
2019-03-06T05:47:00.675Z,6.50
2019-03-06T05:49:49.411Z,6.50
2019-03-06T05:52:30.657Z,6.40
2019-03-06T05:55:12.123Z,6.40
2019-03-06T05:57:52.643Z,6.30
2019-03-06T06:00:33.687Z,6.30
2019-03-06T06:03:14.863Z,6.30
2019-03-06T06:05:55.680Z,6.20
2019-03-06T06:08:36.876Z,6.30
2019-03-06T06:11:18.178Z,6.40
2019-03-06T06:13:47.317Z,6.30
2019-03-06T06:16:35.840Z,6.30
2019-03-06T06:19:24.435Z,6.30
2019-03-06T06:25:26.444Z,6.40
2019-03-06T06:28:14.787Z,6.40
2019-03-06T06:31:03.620Z,6.40
2019-03-06T06:33:52.167Z,6.50
2019-03-06T06:36:40.755Z,6.60
2019-03-06T06:39:29.268Z,6.70
2019-03-06T06:42:17.566Z,6.60
2019-03-06T06:44:59.187Z,6.60
2019-03-06T06:47:40.752Z,6.60
2019-03-06T06:50:22.051Z,6.60
2019-03-06T06:53:03.498Z,6.50
2019-03-06T06:55:47.443Z,6.50
2019-03-06T06:58:31.307Z,6.60
2019-03-06T07:07:32.907Z,6.80
2019-03-06T07:10:32.793Z,7.00
2019-03-06T07:13:32.743Z,7.10
2019-03-06T07:16:32.983Z,7.30
2019-03-06T07:19:15.060Z,7.70
2019-03-06T07:22:03.245Z,8.00
2019-03-06T07:25:10.735Z,8.20
2019-03-06T07:28:17.957Z,8.40
2019-03-06T07:31:15.702Z,8.80
2019-03-06T07:34:23.007Z,9.10
2019-03-06T07:37:15.760Z,9.30
2019-03-06T07:43:35.384Z,9.70
2019-03-06T07:46:26.066Z,9.90
2019-03-06T07:49:29.519Z,10.00
2019-03-06T07:52:20.219Z,10.10
2019-03-06T07:55:20.517Z,10.20
2019-03-06T07:58:01.296Z,10.40
2019-03-06T08:00:41.848Z,10.70
2019-03-06T08:03:23.107Z,10.60
2019-03-06T08:06:04.027Z,10.70
2019-03-06T08:08:45.669Z,10.70
2019-03-06T08:14:49.716Z,10.70
2019-03-06T08:17:56.979Z,10.70
2019-03-06T08:21:04.202Z,10.60
2019-03-06T08:24:11.507Z,10.70
2019-03-06T08:27:00.055Z,10.80
2019-03-06T08:29:48.284Z,11.00
2019-03-06T08:32:36.867Z,11.20
2019-03-06T08:35:25.072Z,11.30
2019-03-06T08:38:13.583Z,11.40
2019-03-06T08:41:04.775Z,11.30
2019-03-06T08:43:44.632Z,11.50
2019-03-06T08:46:47.427Z,11.50
2019-03-06T08:52:53.836Z,11.80
2019-03-06T08:55:53.560Z,12.10
2019-03-06T08:58:53.941Z,12.40
2019-03-06T09:02:00.485Z,12.90
2019-03-06T09:04:37.136Z,13.10
2019-03-06T09:07:37.059Z,13.50
2019-03-06T09:10:26.515Z,13.80
2019-03-06T09:13:33.756Z,14.00
2019-03-06T09:16:41.007Z,14.20
2019-03-06T09:19:37.528Z,14.40
2019-03-06T09:22:44.764Z,14.70
2019-03-06T09:25:52.440Z,15.00
2019-03-06T09:29:00.501Z,15.30
2019-03-06T09:31:43.234Z,15.50
2019-03-06T09:34:29.855Z,15.70
2019-03-06T09:37:22.943Z,16.10
2019-03-06T09:40:19.152Z,16.20
2019-03-06T09:43:19.091Z,16.40
2019-03-06T09:46:21.667Z,16.60
2019-03-06T09:49:18.212Z,16.70
2019-03-06T09:52:17.733Z,16.80
2019-03-06T09:55:09.935Z,16.80
2019-03-06T09:58:17.147Z,16.90
2019-03-06T10:01:24.396Z,16.90
2019-03-06T10:04:31.644Z,17.10
2019-03-06T10:07:38.862Z,17.50
2019-03-06T10:10:32.573Z,17.60
2019-03-06T10:13:26.216Z,17.20
2019-03-06T10:16:16.330Z,17.30
2019-03-06T10:19:07.316Z,17.30
2019-03-06T10:21:50.203Z,17.30
2019-03-06T10:24:31.358Z,17.30
2019-03-06T10:27:11.874Z,17.20
2019-03-06T10:29:52.744Z,17.50
2019-03-06T10:32:33.772Z,17.50
2019-03-06T10:35:15.096Z,17.40
2019-03-06T10:37:55.571Z,17.40
2019-03-06T10:40:36.680Z,17.00
2019-03-06T10:43:17.841Z,16.70
2019-03-06T10:45:58.340Z,16.30
2019-03-06T10:48:27.909Z,16.40
2019-03-06T10:51:16.456Z,16.90
2019-03-06T10:54:04.840Z,16.70
2019-03-06T10:56:53.147Z,16.90
2019-03-06T10:59:41.517Z,17.30
2019-03-06T11:02:30.044Z,17.60
2019-03-06T11:05:29.615Z,17.60
2019-03-06T11:08:18.202Z,17.20
2019-03-06T11:11:06.500Z,17.10
2019-03-06T11:13:55.039Z,17.10
2019-03-06T11:16:36.570Z,17.10
2019-03-06T11:19:17.987Z,17.10
2019-03-06T11:21:59.085Z,17.30
2019-03-06T11:24:40.592Z,17.40
2019-03-06T11:27:21.640Z,17.30
2019-03-06T11:30:03.375Z,17.10
2019-03-06T11:32:44.439Z,17.20
2019-03-06T11:35:25.213Z,17.30
2019-03-06T11:38:06.011Z,17.10
2019-03-06T11:40:46.843Z,17.20
2019-03-06T11:43:16.139Z,17.20
2019-03-06T11:46:24.955Z,17.10
2019-03-06T11:49:13.407Z,17.20
2019-03-06T11:52:02.209Z,16.80
2019-03-06T11:54:50.560Z,16.60
2019-03-06T11:57:38.947Z,16.60
2019-03-06T12:00:46.271Z,16.30
2019-03-06T12:03:55.788Z,16.20
2019-03-06T12:06:44.284Z,16.20
2019-03-06T12:09:34.200Z,16.20
2019-03-06T12:12:22.568Z,16.20
2019-03-06T12:15:11.772Z,16.20
2019-03-06T12:18:00.051Z,16.10
2019-03-06T12:20:48.616Z,16.00
2019-03-06T12:23:18.052Z,15.90
2019-03-06T12:26:06.526Z,15.80
2019-03-06T12:28:54.884Z,15.80
2019-03-06T12:31:24.106Z,15.60
2019-03-06T12:34:12.762Z,15.70
2019-03-06T12:37:01.331Z,15.60
2019-03-06T12:39:49.535Z,15.50
2019-03-06T12:45:31.661Z,15.20
2019-03-06T12:48:01.401Z,15.10
2019-03-06T12:50:31.559Z,15.10
2019-03-06T12:53:01.131Z,15.00
2019-03-06T12:55:30.325Z,14.80
2019-03-06T12:58:18.800Z,14.80
2019-03-06T13:01:07.037Z,14.90
2019-03-06T13:03:36.140Z,14.90
2019-03-06T13:06:25.202Z,15.00
2019-03-06T13:09:16.826Z,14.90
2019-03-06T13:12:05.452Z,14.90
2019-03-06T13:14:53.990Z,15.00
2019-03-06T13:17:36.385Z,14.90
2019-03-06T13:20:17.619Z,14.90
2019-03-06T13:25:42.087Z,14.80
2019-03-06T13:28:30.395Z,14.80
2019-03-06T13:31:18.708Z,14.90
2019-03-06T13:34:26.109Z,14.80
2019-03-06T13:37:14.484Z,14.90
2019-03-06T13:40:03.385Z,14.90
2019-03-06T13:42:52.742Z,15.10
2019-03-06T13:45:43.009Z,15.10
2019-03-06T13:48:31.320Z,15.20
2019-03-06T13:51:19.958Z,15.40
2019-03-06T13:54:08.235Z,15.50
2019-03-06T13:56:56.621Z,15.80
2019-03-06T13:59:44.992Z,15.80
2019-03-06T14:02:33.304Z,15.70
2019-03-06T14:08:30.893Z,15.60
2019-03-06T14:11:19.432Z,15.60
2019-03-06T14:14:07.804Z,15.80
2019-03-06T14:16:49.160Z,15.80
2019-03-06T14:19:29.686Z,15.80
2019-03-06T14:22:11.519Z,15.90
2019-03-06T14:24:52.634Z,16.00
2019-03-06T14:27:33.447Z,16.00
2019-03-06T14:30:14.450Z,15.90
2019-03-06T14:32:55.008Z,16.10
2019-03-06T14:35:35.768Z,16.20
2019-03-06T14:38:16.984Z,16.30
2019-03-06T14:40:57.803Z,16.40
2019-03-06T14:43:27.042Z,16.30
2019-03-06T14:46:16.778Z,16.20
2019-03-06T14:49:05.457Z,16.30
2019-03-06T14:51:53.996Z,16.40
2019-03-06T14:54:42.415Z,16.30
2019-03-06T14:57:30.715Z,16.40
2019-03-06T15:00:19.671Z,16.40
2019-03-06T15:03:07.975Z,16.40
2019-03-06T15:05:56.503Z,16.40
2019-03-06T15:08:44.810Z,16.30
2019-03-06T15:11:33.435Z,16.20
2019-03-06T15:14:23.313Z,16.20
2019-03-06T15:17:11.667Z,16.10
2019-03-06T15:20:00.313Z,16.00
2019-03-06T15:22:48.796Z,15.80
2019-03-06T15:25:19.868Z,15.80
2019-03-06T15:28:08.188Z,15.80
2019-03-06T15:30:56.555Z,15.70
2019-03-06T15:33:45.138Z,15.70
2019-03-06T15:36:33.496Z,15.70
2019-03-06T15:39:48.075Z,15.60
2019-03-06T15:42:31.387Z,15.60
2019-03-06T15:48:15.415Z,15.60
2019-03-06T15:51:03.632Z,15.60
2019-03-06T15:53:52.211Z,15.50
2019-03-06T15:56:40.519Z,15.50
2019-03-06T15:59:29.151Z,15.50
2019-03-06T16:02:09.926Z,15.40
2019-03-06T16:04:51.379Z,15.40
2019-03-06T16:07:32.256Z,15.40
2019-03-06T16:10:13.828Z,15.30
2019-03-06T16:12:54.405Z,15.30
2019-03-06T16:15:35.248Z,15.30
2019-03-06T16:18:16.043Z,15.30
2019-03-06T16:20:57.068Z,15.30
2019-03-06T16:23:38.160Z,15.30
2019-03-06T16:26:18.746Z,15.20
2019-03-06T16:28:59.471Z,15.20
2019-03-06T16:31:40.231Z,15.20
2019-03-06T16:34:21.488Z,15.20
2019-03-06T16:37:02.336Z,15.20
2019-03-06T16:39:43.560Z,15.10
2019-03-06T16:42:24.119Z,15.10
2019-03-06T16:45:05.166Z,15.00
2019-03-06T16:47:46.901Z,15.00
2019-03-06T16:50:28.227Z,14.90
2019-03-06T16:53:09.419Z,14.80
2019-03-06T16:55:50.283Z,14.70
2019-03-06T16:58:31.652Z,14.60
2019-03-06T17:01:12.598Z,14.50
2019-03-06T17:03:53.430Z,14.40
2019-03-06T17:06:34.683Z,14.30
2019-03-06T17:09:16.447Z,14.30
2019-03-06T17:11:57.216Z,14.10
2019-03-06T17:14:38.879Z,14.10
2019-03-06T17:17:20.094Z,14.10
2019-03-06T17:20:00.601Z,14.10
2019-03-06T17:22:42.034Z,14.10
2019-03-06T17:25:23.101Z,14.20
2019-03-06T17:28:04.002Z,14.20
2019-03-06T17:30:44.752Z,14.20
2019-03-06T17:33:25.703Z,14.10
2019-03-06T17:36:06.587Z,14.10
2019-03-06T17:38:47.783Z,14.20
2019-03-06T17:41:29.175Z,14.20
2019-03-06T17:44:11.187Z,14.20
2019-03-06T17:46:52.634Z,14.10
2019-03-06T17:49:34.998Z,14.20
2019-03-06T17:52:16.480Z,14.20
2019-03-06T17:54:57.424Z,14.10
2019-03-06T17:57:38.468Z,14.10
2019-03-06T18:00:20.959Z,14.00
2019-03-06T18:03:02.289Z,14.00
2019-03-06T18:05:44.048Z,14.00
2019-03-06T18:08:25.004Z,13.90
2019-03-06T18:11:06.613Z,13.80
2019-03-06T18:13:48.226Z,13.80
2019-03-06T18:16:29.313Z,13.70
2019-03-06T18:19:10.667Z,13.70
2019-03-06T18:21:52.371Z,13.70
2019-03-06T18:24:33.959Z,13.70
2019-03-06T18:27:15.135Z,13.60
2019-03-06T18:29:56.155Z,13.60
2019-03-06T18:32:37.559Z,13.60
2019-03-06T18:35:19.230Z,13.60
2019-03-06T18:38:00.364Z,13.60
2019-03-06T18:40:42.091Z,13.60
2019-03-06T18:43:22.752Z,13.50
2019-03-06T18:46:03.951Z,13.50
2019-03-06T18:48:44.767Z,13.60
2019-03-06T18:51:14.118Z,13.50
2019-03-06T18:54:02.392Z,13.40
2019-03-06T19:00:07.069Z,13.30
2019-03-06T19:02:55.806Z,13.30
2019-03-06T19:05:44.224Z,13.20
2019-03-06T19:08:32.774Z,13.10
2019-03-06T19:11:02.272Z,13.10
2019-03-06T19:13:50.806Z,13.00
2019-03-06T19:16:39.351Z,13.00
2019-03-06T19:19:27.997Z,13.00
2019-03-06T19:24:33.538Z,12.80
2019-03-06T19:27:14.266Z,12.90
2019-03-06T19:29:55.250Z,12.90
2019-03-06T19:32:36.814Z,12.80
2019-03-06T19:35:18.086Z,12.80
2019-03-06T19:37:58.850Z,12.80
2019-03-06T19:40:39.822Z,12.80
2019-03-06T19:43:22.564Z,12.80
2019-03-06T19:46:03.495Z,12.80
2019-03-06T19:48:44.238Z,12.80
2019-03-06T19:51:27.842Z,12.90
2019-03-06T19:54:08.503Z,12.90
2019-03-06T19:56:49.134Z,12.90
2019-03-06T19:59:30.070Z,12.90
2019-03-06T20:02:11.435Z,12.90
2019-03-06T20:04:52.232Z,12.90
2019-03-06T20:07:33.331Z,12.90
2019-03-06T20:10:14.154Z,12.90
2019-03-06T20:12:55.821Z,13.00
2019-03-06T20:15:36.883Z,12.90
2019-03-06T20:18:17.720Z,13.00
2019-03-06T20:20:58.631Z,13.00
2019-03-06T20:23:39.394Z,13.00
2019-03-06T20:26:20.931Z,13.10
2019-03-06T20:29:02.531Z,13.10
2019-03-06T20:31:44.040Z,13.20
2019-03-06T20:34:26.143Z,13.20
2019-03-06T20:37:06.986Z,13.10
2019-03-06T20:39:47.558Z,13.10
2019-03-06T20:42:28.066Z,13.10
2019-03-06T20:44:57.673Z,13.10
2019-03-06T20:47:26.962Z,13.00
2019-03-06T20:49:56.174Z,13.00
2019-03-06T20:52:25.355Z,13.00
2019-03-06T20:54:54.826Z,13.00
2019-03-06T20:57:24.362Z,13.00
2019-03-06T20:59:53.946Z,13.10
2019-03-06T21:02:23.158Z,13.10
2019-03-06T21:04:53.953Z,13.10
2019-03-06T21:07:23.927Z,13.20
2019-03-06T21:09:53.345Z,13.10
2019-03-06T21:12:22.634Z,13.10
2019-03-06T21:14:52.077Z,13.20
2019-03-06T21:17:21.683Z,13.20
2019-03-06T21:19:51.578Z,13.30
2019-03-06T21:22:20.763Z,13.30
2019-03-06T21:24:50.067Z,13.20
2019-03-06T21:27:19.902Z,13.30
2019-03-06T21:29:49.631Z,13.30
2019-03-06T21:32:18.830Z,13.30
2019-03-06T21:34:48.394Z,13.40
2019-03-06T21:37:18.096Z,13.40
2019-03-06T21:39:47.241Z,13.40
2019-03-06T21:42:16.513Z,13.40
2019-03-06T21:44:45.923Z,13.50
2019-03-06T21:47:15.104Z,13.50
2019-03-06T21:49:44.810Z,13.60
2019-03-06T21:52:14.094Z,13.60
2019-03-06T21:54:43.503Z,13.60
2019-03-06T21:57:12.686Z,13.70
2019-03-06T21:59:42.398Z,13.70
2019-03-06T22:02:11.609Z,13.60
2019-03-06T22:04:41.212Z,13.70
2019-03-06T22:07:10.439Z,13.70
2019-03-06T22:09:39.858Z,13.70
2019-03-06T22:12:08.985Z,13.60
2019-03-06T22:14:38.440Z,13.70
2019-03-06T22:17:08.912Z,13.70
2019-03-06T22:19:38.507Z,13.70
2019-03-06T22:22:07.622Z,13.70
2019-03-06T22:24:37.458Z,13.60
2019-03-06T22:27:07.038Z,13.50
2019-03-06T22:29:36.663Z,13.50
2019-03-06T22:32:06.082Z,13.40
2019-03-06T22:34:35.364Z,13.20
2019-03-06T22:37:04.528Z,13.00
2019-03-06T22:39:33.703Z,12.90
2019-03-06T22:42:03.163Z,12.90
2019-03-06T22:44:32.351Z,13.00
2019-03-06T22:47:02.088Z,13.10
2019-03-06T22:49:31.623Z,13.00
2019-03-06T22:52:01.215Z,13.00
2019-03-06T22:54:30.459Z,12.90
2019-03-06T22:56:59.890Z,12.90
2019-03-06T22:59:29.635Z,12.80
2019-03-06T23:01:59.324Z,12.90
2019-03-06T23:04:28.934Z,12.90
2019-03-06T23:06:58.330Z,12.90
2019-03-06T23:09:27.540Z,12.90
2019-03-06T23:11:57.182Z,12.90
2019-03-06T23:14:26.861Z,12.90
2019-03-06T23:16:56.198Z,12.90
2019-03-06T23:19:25.631Z,12.90
2019-03-06T23:21:54.799Z,13.00
2019-03-06T23:24:24.003Z,13.00
2019-03-06T23:26:53.138Z,13.00
2019-03-06T23:29:22.766Z,13.00
2019-03-06T23:31:51.949Z,13.00
2019-03-06T23:34:21.984Z,13.00
2019-03-06T23:36:51.150Z,12.90
2019-03-06T23:39:20.578Z,12.90
2019-03-06T23:41:49.778Z,12.90
2019-03-06T23:44:18.953Z,12.90
2019-03-06T23:46:48.134Z,12.90
2019-03-06T23:49:17.229Z,12.80
2019-03-06T23:52:01.686Z,12.80
2019-03-06T23:54:30.955Z,12.80
2019-03-06T23:57:00.044Z,12.80
2019-03-06T23:59:29.146Z,12.80
